createdAt,value
2022-11-27T00:01:13.201Z,30.50
2022-11-27T00:03:15.354Z,28.55
2022-11-27T00:05:17.629Z,29.55
2022-11-27T00:07:19.853Z,28.15
2022-11-27T00:09:21.857Z,29.33
2022-11-27T00:11:25.900Z,28.85
2022-11-27T00:13:27.793Z,28.65
2022-11-27T00:15:29.690Z,29.27
2022-11-27T00:17:31.616Z,29.67
2022-11-27T00:19:33.702Z,30.52
2022-11-27T00:21:36.586Z,29.55
2022-11-27T00:23:38.644Z,29.48
2022-11-27T00:25:40.609Z,29.48
2022-11-27T00:27:42.509Z,30.95
2022-11-27T00:29:44.458Z,28.48
2022-11-27T00:31:46.384Z,29.45
2022-11-27T00:33:48.650Z,29.52
2022-11-27T00:35:51.544Z,28.50
2022-11-27T00:37:53.373Z,28.20
2022-11-27T00:39:55.314Z,30.50
2022-11-27T00:41:57.186Z,28.40
2022-11-27T00:43:59.507Z,29.60
2022-11-27T00:46:01.502Z,30.40
2022-11-27T00:48:03.502Z,29.60
2022-11-27T00:50:06.024Z,27.77
2022-11-27T00:52:07.999Z,30.52
2022-11-27T00:54:10.049Z,29.27
2022-11-27T00:56:18.084Z,28.55
2022-11-27T00:58:20.138Z,28.45
2022-11-27T01:00:23.366Z,28.52
2022-11-27T01:02:25.483Z,27.63
2022-11-27T01:04:28.357Z,29.73
2022-11-27T01:06:30.647Z,28.13
2022-11-27T01:08:33.271Z,30.38
2022-11-27T01:10:35.137Z,29.48
2022-11-27T01:12:37.008Z,28.95
2022-11-27T01:14:39.126Z,29.42
2022-11-27T01:16:43.357Z,30.13
2022-11-27T01:18:48.139Z,30.75
2022-11-27T01:20:53.085Z,30.73
2022-11-27T01:22:54.887Z,29.48
2022-11-27T01:24:56.769Z,31.40
2022-11-27T01:26:58.580Z,32.83
2022-11-27T01:29:00.710Z,32.28
2022-11-27T01:31:12.874Z,34.83
2022-11-27T01:33:15.086Z,33.63
2022-11-27T01:35:16.977Z,33.00
2022-11-27T01:37:18.781Z,32.20
2022-11-27T01:39:21.837Z,32.20
2022-11-27T01:41:35.625Z,31.90
2022-11-27T01:43:37.374Z,33.67
2022-11-27T01:45:39.247Z,31.77
2022-11-27T01:48:03.377Z,33.28
2022-11-27T01:50:17.125Z,32.83
2022-11-27T01:52:27.431Z,32.60
2022-11-27T01:54:34.763Z,33.15
2022-11-27T01:56:37.283Z,31.45
2022-11-27T01:58:39.894Z,33.05
2022-11-27T02:00:42.088Z,33.33
2022-11-27T02:02:45.125Z,32.92
2022-11-27T02:04:46.962Z,31.70
2022-11-27T02:06:48.791Z,33.70
2022-11-27T02:08:52.999Z,31.55
2022-11-27T02:11:19.670Z,32.72
2022-11-27T02:13:27.233Z,32.97
2022-11-27T02:15:46.959Z,33.03
2022-11-27T02:17:52.814Z,33.30
2022-11-27T02:20:28.898Z,34.38
2022-11-27T02:22:50.299Z,34.10
2022-11-27T02:25:26.794Z,34.72
2022-11-27T02:27:43.877Z,34.63
2022-11-27T02:29:50.177Z,34.60
2022-11-27T02:31:58.373Z,35.25
2022-11-27T02:34:23.529Z,35.70
2022-11-27T02:36:32.095Z,36.53
2022-11-27T02:38:44.852Z,34.85
2022-11-27T02:41:14.045Z,36.00
2022-11-27T02:43:21.878Z,35.35
2022-11-27T02:45:34.907Z,35.55
2022-11-27T02:47:40.222Z,37.03
2022-11-27T02:49:44.227Z,35.30
2022-11-27T02:51:59.240Z,37.20
2022-11-27T02:54:05.774Z,36.83
2022-11-27T02:56:11.713Z,35.72
2022-11-27T02:58:18.060Z,37.00
2022-11-27T03:00:20.199Z,36.63
2022-11-27T03:02:28.628Z,36.00
2022-11-27T03:04:36.955Z,36.78
2022-11-27T03:06:48.387Z,36.40
2022-11-27T03:08:56.613Z,35.45
2022-11-27T03:11:06.098Z,34.53
2022-11-27T03:13:08.004Z,36.00
2022-11-27T03:15:10.395Z,35.50
2022-11-27T03:17:30.915Z,32.80
2022-11-27T03:19:54.259Z,33.67
2022-11-27T03:21:58.535Z,35.10
2022-11-27T03:24:00.837Z,33.42
2022-11-27T03:26:02.719Z,32.65
2022-11-27T03:28:10.670Z,33.35
2022-11-27T03:30:13.139Z,33.55
2022-11-27T03:32:15.287Z,31.15
2022-11-27T03:34:18.281Z,32.30
2022-11-27T03:36:22.101Z,31.48
2022-11-27T03:38:23.990Z,32.08
2022-11-27T03:40:34.030Z,31.95
2022-11-27T03:42:56.694Z,30.13
2022-11-27T03:45:04.582Z,31.13
2022-11-27T03:47:28.081Z,29.45
2022-11-27T03:49:39.892Z,29.45
2022-11-27T03:54:35.800Z,29.67
2022-11-27T03:56:49.030Z,30.52
2022-11-27T03:58:59.204Z,30.02
2022-11-27T04:01:03.628Z,28.63
2022-11-27T04:03:05.635Z,29.45
2022-11-27T04:05:07.952Z,29.45
2022-11-27T04:07:17.274Z,28.25
2022-11-27T04:09:19.198Z,28.58
2022-11-27T04:11:21.032Z,29.80
2022-11-27T04:13:22.940Z,28.65
2022-11-27T04:15:24.823Z,29.45
2022-11-27T04:17:27.325Z,29.77
2022-11-27T04:19:29.197Z,30.05
2022-11-27T04:21:31.050Z,30.55
2022-11-27T04:23:32.911Z,30.20
2022-11-27T04:25:34.699Z,29.20
2022-11-27T04:27:36.504Z,30.73
2022-11-27T04:29:38.327Z,31.27
2022-11-27T04:31:40.299Z,30.85
2022-11-27T04:33:42.226Z,30.25
2022-11-27T04:35:44.122Z,30.02
2022-11-27T04:37:46.029Z,29.45
2022-11-27T04:39:47.876Z,29.70
2022-11-27T04:41:49.674Z,30.05
2022-11-27T04:43:51.510Z,31.02
2022-11-27T04:45:53.433Z,30.27
2022-11-27T04:47:55.209Z,30.35
2022-11-27T04:49:57.023Z,30.83
2022-11-27T04:51:58.974Z,31.17
2022-11-27T04:54:00.875Z,31.17
2022-11-27T04:56:02.795Z,31.58
2022-11-27T04:58:04.589Z,30.88
2022-11-27T05:00:07.045Z,30.30
2022-11-27T05:02:09.920Z,29.20
2022-11-27T05:04:11.834Z,31.08
2022-11-27T05:06:13.955Z,31.45
2022-11-27T05:08:15.725Z,31.17
2022-11-27T05:10:18.651Z,31.25
2022-11-27T05:12:20.535Z,31.00
2022-11-27T05:14:27.128Z,30.38
2022-11-27T05:16:28.978Z,30.45
2022-11-27T05:18:30.820Z,30.33
2022-11-27T05:20:32.606Z,31.08
2022-11-27T05:22:34.496Z,33.25
2022-11-27T05:24:37.736Z,38.95
2022-11-27T05:26:40.238Z,37.13
2022-11-27T05:28:42.026Z,33.78
2022-11-27T05:30:43.847Z,31.23
2022-11-27T05:32:45.618Z,31.42
2022-11-27T05:34:49.812Z,31.63
2022-11-27T05:36:51.618Z,32.50
2022-11-27T05:38:53.506Z,31.05
2022-11-27T05:40:55.355Z,31.23
2022-11-27T05:42:57.219Z,31.38
2022-11-27T05:44:59.000Z,31.85
2022-11-27T05:47:00.834Z,32.15
2022-11-27T05:49:02.818Z,32.53
2022-11-27T05:51:05.417Z,32.50
2022-11-27T05:53:07.254Z,32.72
2022-11-27T05:55:09.559Z,32.05
2022-11-27T05:57:11.385Z,32.03
2022-11-27T05:59:13.241Z,33.17
2022-11-27T06:01:17.395Z,32.35
2022-11-27T06:03:19.287Z,33.45
2022-11-27T06:05:21.136Z,32.20
2022-11-27T06:07:23.089Z,31.77
2022-11-27T06:09:25.064Z,32.25
2022-11-27T06:11:26.878Z,32.63
2022-11-27T06:13:28.699Z,32.30
2022-11-27T06:15:30.485Z,31.90
2022-11-27T06:17:32.314Z,31.75
2022-11-27T06:19:34.080Z,32.78
2022-11-27T06:21:35.980Z,32.35
2022-11-27T06:23:38.074Z,33.25
2022-11-27T06:25:39.973Z,32.33
2022-11-27T06:27:42.040Z,31.85
2022-11-27T06:29:43.890Z,31.70
2022-11-27T06:31:45.757Z,32.72
2022-11-27T06:33:49.335Z,31.90
2022-11-27T06:35:51.105Z,31.33
2022-11-27T06:37:52.940Z,31.75
2022-11-27T06:39:54.736Z,31.20
2022-11-27T06:41:56.578Z,33.05
2022-11-27T06:44:00.191Z,33.45
2022-11-27T06:46:03.521Z,32.72
2022-11-27T06:48:05.510Z,32.22
2022-11-27T06:50:07.737Z,32.80
2022-11-27T06:52:09.621Z,33.28
2022-11-27T06:54:11.450Z,30.75
2022-11-27T06:56:16.551Z,32.80
2022-11-27T06:58:18.332Z,33.42
2022-11-27T07:00:20.606Z,31.88
2022-11-27T07:02:22.498Z,33.40
2022-11-27T07:04:24.341Z,33.88
2022-11-27T07:06:27.256Z,33.83
2022-11-27T07:08:29.646Z,34.50
2022-11-27T07:10:36.694Z,34.13
2022-11-27T07:12:38.482Z,33.88
2022-11-27T07:14:40.653Z,34.28
2022-11-27T07:16:42.782Z,33.40
2022-11-27T07:18:47.664Z,33.53
2022-11-27T07:20:56.442Z,31.92
2022-11-27T07:22:58.697Z,32.83
2022-11-27T07:25:00.514Z,32.92
2022-11-27T07:27:02.309Z,33.60
2022-11-27T07:29:04.234Z,31.98
2022-11-27T07:31:06.772Z,33.63
2022-11-27T07:33:08.580Z,32.13
2022-11-27T07:35:11.030Z,33.78
2022-11-27T07:37:12.820Z,33.47
2022-11-27T07:39:14.664Z,34.03
2022-11-27T07:41:17.056Z,33.70
2022-11-27T07:43:18.835Z,35.15
2022-11-27T07:45:21.796Z,34.45
2022-11-27T07:47:23.717Z,33.70
2022-11-27T07:49:25.741Z,33.72
2022-11-27T07:51:27.901Z,33.60
2022-11-27T07:53:29.745Z,33.70
2022-11-27T07:55:31.652Z,33.67
2022-11-27T07:57:33.557Z,34.15
2022-11-27T07:59:35.374Z,33.78
2022-11-27T08:01:37.333Z,31.63
2022-11-27T08:03:40.366Z,32.30
2022-11-27T08:05:42.293Z,32.70
2022-11-27T08:07:57.041Z,33.72
2022-11-27T08:09:58.973Z,31.67
2022-11-27T08:12:00.762Z,32.20
2022-11-27T08:14:05.811Z,32.20
2022-11-27T08:16:08.098Z,31.98
2022-11-27T08:18:10.020Z,31.75
2022-11-27T08:20:12.000Z,32.38
2022-11-27T08:22:15.925Z,34.92
2022-11-27T08:24:17.787Z,31.52
2022-11-27T08:26:21.054Z,31.58
2022-11-27T08:28:22.977Z,32.28
2022-11-27T08:30:24.928Z,32.17
2022-11-27T08:32:26.765Z,31.05
2022-11-27T08:34:28.584Z,31.85
2022-11-27T08:36:30.400Z,31.67
2022-11-27T08:38:33.334Z,30.80
2022-11-27T08:40:36.266Z,31.85
2022-11-27T08:42:38.138Z,31.55
2022-11-27T08:44:40.232Z,30.50
2022-11-27T08:46:43.764Z,32.17
2022-11-27T08:48:46.573Z,33.75
2022-11-27T08:50:50.119Z,34.13
2022-11-27T08:52:51.972Z,32.50
2022-11-27T08:54:57.555Z,33.13
2022-11-27T08:56:59.950Z,32.67
2022-11-27T08:59:01.913Z,33.13
2022-11-27T09:01:33.642Z,32.03
2022-11-27T09:03:35.622Z,31.85
2022-11-27T09:05:43.205Z,31.33
2022-11-27T09:07:45.228Z,32.78
2022-11-27T09:09:47.724Z,32.15
2022-11-27T09:11:49.774Z,30.77
2022-11-27T09:13:51.702Z,32.17
2022-11-27T09:15:53.627Z,31.63
2022-11-27T09:17:55.480Z,31.80
2022-11-27T09:19:57.306Z,32.60
2022-11-27T09:21:59.760Z,31.80
2022-11-27T09:24:02.425Z,30.52
2022-11-27T09:26:09.404Z,32.53
2022-11-27T09:28:11.289Z,32.72
2022-11-27T09:30:14.620Z,30.40
2022-11-27T09:32:17.041Z,31.60
2022-11-27T09:34:18.957Z,31.95
2022-11-27T09:36:23.436Z,30.98
2022-11-27T09:38:25.300Z,32.85
2022-11-27T09:40:27.109Z,30.75
2022-11-27T09:42:48.639Z,29.55
2022-11-27T09:44:59.232Z,30.98
2022-11-27T09:47:20.472Z,31.30
2022-11-27T09:49:35.625Z,31.00
2022-11-27T09:51:44.259Z,31.25
2022-11-27T09:54:16.018Z,31.40
2022-11-27T09:56:19.158Z,30.40
2022-11-27T09:58:47.241Z,29.05
2022-11-27T10:00:49.300Z,29.83
2022-11-27T10:02:51.544Z,30.35
2022-11-27T10:07:25.311Z,29.10
2022-11-27T10:09:48.123Z,29.02
2022-11-27T10:12:01.556Z,30.08
2022-11-27T10:14:27.024Z,29.30
2022-11-27T10:17:07.343Z,29.45
2022-11-27T10:19:24.361Z,28.65
2022-11-27T10:21:47.076Z,29.20
2022-11-27T10:24:10.307Z,28.80
2022-11-27T10:26:28.235Z,27.80
2022-11-27T10:29:12.732Z,28.48
2022-11-27T10:31:27.779Z,27.30
2022-11-27T10:33:44.112Z,27.70
2022-11-27T10:35:49.567Z,28.60
2022-11-27T10:38:03.653Z,27.08
2022-11-27T10:40:14.194Z,27.17
2022-11-27T10:42:22.867Z,26.98
2022-11-27T10:44:30.303Z,27.38
2022-11-27T10:46:37.911Z,25.80
2022-11-27T10:48:40.166Z,27.52
2022-11-27T10:50:43.710Z,26.20
2022-11-27T10:53:32.141Z,27.58
2022-11-27T10:56:04.918Z,27.20
2022-11-27T10:58:24.375Z,27.23
2022-11-27T11:00:27.235Z,26.92
2022-11-27T11:02:33.825Z,27.27
2022-11-27T11:04:48.356Z,26.52
2022-11-27T11:06:58.147Z,27.13
2022-11-27T11:09:34.779Z,26.65
2022-11-27T11:11:36.749Z,25.02
2022-11-27T11:13:41.499Z,25.73
2022-11-27T11:15:52.505Z,26.05
2022-11-27T11:17:54.360Z,24.42
2022-11-27T11:19:56.316Z,23.35
2022-11-27T11:22:00.976Z,25.20
2022-11-27T11:24:31.313Z,25.73
2022-11-27T11:26:45.328Z,24.42
2022-11-27T11:28:52.326Z,24.15
2022-11-27T11:30:58.510Z,24.05
2022-11-27T11:33:02.498Z,24.55
2022-11-27T11:35:27.100Z,25.20
2022-11-27T11:37:32.034Z,24.60
2022-11-27T11:39:48.551Z,25.60
2022-11-27T11:41:50.604Z,24.65
2022-11-27T11:44:01.932Z,25.70
2022-11-27T11:46:24.852Z,25.13
2022-11-27T11:48:28.037Z,24.63
2022-11-27T11:50:39.066Z,22.92
2022-11-27T11:53:02.476Z,22.58
2022-11-27T11:55:20.246Z,24.33
2022-11-27T11:57:52.163Z,23.35
2022-11-27T12:00:05.656Z,23.25
2022-11-27T12:02:31.940Z,23.33
2022-11-27T12:05:04.493Z,23.15
2022-11-27T12:07:09.204Z,24.50
2022-11-27T12:09:32.727Z,23.50
2022-11-27T12:11:53.762Z,22.02
2022-11-27T12:13:58.499Z,22.07
2022-11-27T12:16:16.403Z,22.88
2022-11-27T12:18:23.386Z,22.95
2022-11-27T12:21:03.891Z,22.30
2022-11-27T12:23:33.722Z,22.17
2022-11-27T12:25:48.573Z,22.90
2022-11-27T12:28:12.182Z,22.55
2022-11-27T12:30:23.272Z,23.20
2022-11-27T12:32:48.836Z,22.88
2022-11-27T12:35:26.200Z,22.52
2022-11-27T12:37:49.666Z,22.58
2022-11-27T12:40:25.804Z,21.60
2022-11-27T12:42:40.379Z,22.25
2022-11-27T12:45:11.252Z,21.05
2022-11-27T12:47:33.950Z,21.30
2022-11-27T12:50:03.645Z,22.70
2022-11-27T12:52:19.897Z,23.02
2022-11-27T12:54:38.446Z,21.45
2022-11-27T12:56:52.437Z,22.73
2022-11-27T12:59:05.041Z,22.33
2022-11-27T13:01:41.501Z,23.40
2022-11-27T13:04:00.328Z,23.48
2022-11-27T13:06:33.976Z,23.13
2022-11-27T13:08:55.554Z,23.38
2022-11-27T13:11:04.319Z,24.27
2022-11-27T13:13:16.226Z,21.88
2022-11-27T13:15:35.124Z,23.15
2022-11-27T13:17:42.861Z,22.38
2022-11-27T13:19:49.080Z,24.13
2022-11-27T13:21:53.416Z,23.45
2022-11-27T13:23:55.573Z,24.38
2022-11-27T13:26:00.765Z,24.50
2022-11-27T13:28:05.869Z,22.90
2022-11-27T13:30:10.265Z,22.50
2022-11-27T13:32:24.545Z,23.42
2022-11-27T13:34:30.638Z,23.23
2022-11-27T13:36:36.422Z,21.55
2022-11-27T13:38:42.243Z,21.75
2022-11-27T13:40:47.887Z,22.05
2022-11-27T13:42:55.395Z,22.45
2022-11-27T13:45:19.847Z,22.27
2022-11-27T13:47:25.137Z,22.85
2022-11-27T13:49:36.419Z,23.90
2022-11-27T13:51:40.018Z,23.45
2022-11-27T13:53:42.962Z,22.95
2022-11-27T13:55:56.943Z,23.55
2022-11-27T13:58:01.290Z,23.77
2022-11-27T14:00:03.235Z,23.63
2022-11-27T14:02:08.370Z,23.00
2022-11-27T14:04:10.840Z,24.17
2022-11-27T14:06:26.427Z,21.77
2022-11-27T14:08:35.330Z,23.70
2022-11-27T14:10:50.485Z,23.05
2022-11-27T14:12:59.885Z,22.17
2022-11-27T14:15:21.001Z,22.45
2022-11-27T14:17:43.641Z,23.02
2022-11-27T14:19:47.020Z,21.67
2022-11-27T14:21:49.497Z,22.05
2022-11-27T14:23:54.963Z,22.13
2022-11-27T14:26:14.632Z,22.73
2022-11-27T14:28:26.298Z,21.80
2022-11-27T14:30:50.907Z,22.75
2022-11-27T14:32:52.976Z,22.17
2022-11-27T14:34:54.878Z,21.80
2022-11-27T14:36:59.472Z,22.42
2022-11-27T14:39:02.932Z,21.92
2022-11-27T14:41:11.502Z,22.80
2022-11-27T14:43:20.323Z,21.45
2022-11-27T14:45:22.943Z,21.80
2022-11-27T14:47:25.950Z,20.67
2022-11-27T14:49:30.455Z,21.02
2022-11-27T14:51:37.605Z,20.42
2022-11-27T14:53:41.948Z,21.95
2022-11-27T14:55:44.671Z,21.95
2022-11-27T14:57:48.849Z,20.58
2022-11-27T15:00:21.766Z,21.50
2022-11-27T15:02:29.359Z,20.23
2022-11-27T15:04:40.762Z,21.63
2022-11-27T15:06:47.114Z,22.00
2022-11-27T15:09:03.230Z,22.00
2022-11-27T15:11:35.752Z,23.67
2022-11-27T15:13:38.823Z,21.77
2022-11-27T15:15:44.844Z,21.48
2022-11-27T15:17:50.762Z,21.48
2022-11-27T15:19:53.871Z,22.67
2022-11-27T15:21:57.329Z,22.05
2022-11-27T15:23:59.857Z,23.45
2022-11-27T15:26:16.832Z,24.58
2022-11-27T15:28:30.372Z,24.70
2022-11-27T15:30:32.489Z,23.52
2022-11-27T15:32:52.109Z,25.17
2022-11-27T15:34:55.121Z,22.83
2022-11-27T15:37:06.469Z,23.00
2022-11-27T15:39:19.983Z,25.40
2022-11-27T15:41:26.610Z,25.73
2022-11-27T15:43:28.856Z,24.60
2022-11-27T15:45:32.171Z,25.70
2022-11-27T15:47:43.531Z,23.58
2022-11-27T15:49:46.967Z,23.40
2022-11-27T15:51:50.755Z,24.55
2022-11-27T15:53:53.017Z,25.88
2022-11-27T15:55:55.160Z,26.77
2022-11-27T15:57:58.018Z,25.27
2022-11-27T16:00:00.033Z,26.63
2022-11-27T16:02:03.486Z,26.98
2022-11-27T16:04:06.060Z,25.10
2022-11-27T16:06:09.443Z,27.38
2022-11-27T16:08:11.399Z,25.10
2022-11-27T16:10:13.649Z,25.48
2022-11-27T16:12:15.967Z,27.55
2022-11-27T16:14:18.451Z,28.98
2022-11-27T16:16:23.956Z,30.45
2022-11-27T16:18:27.304Z,30.42
2022-11-27T16:20:29.348Z,33.22
2022-11-27T16:22:31.326Z,30.92
2022-11-27T16:24:42.053Z,29.33
2022-11-27T16:26:50.651Z,31.42
2022-11-27T16:31:26.948Z,32.40
2022-11-27T16:35:49.621Z,32.83
2022-11-27T16:37:54.708Z,35.97
2022-11-27T16:39:57.684Z,35.10
2022-11-27T16:42:00.745Z,34.60
2022-11-27T16:44:13.055Z,33.45
2022-11-27T16:46:28.711Z,33.00
2022-11-27T16:48:38.066Z,32.85
2022-11-27T16:50:40.039Z,32.60
2022-11-27T16:52:59.847Z,32.03
2022-11-27T16:55:13.677Z,31.08
2022-11-27T16:57:15.681Z,34.20
2022-11-27T16:59:26.818Z,32.53
2022-11-27T17:01:38.762Z,34.28
2022-11-27T17:04:16.307Z,33.88
2022-11-27T17:06:29.001Z,33.38
2022-11-27T17:08:37.938Z,35.38
2022-11-27T17:10:40.098Z,35.78
2022-11-27T17:12:42.397Z,37.30
2022-11-27T17:14:44.737Z,34.35
2022-11-27T17:16:50.985Z,33.75
2022-11-27T17:18:53.439Z,33.20
2022-11-27T17:21:03.126Z,34.28
2022-11-27T17:23:05.379Z,32.58
2022-11-27T17:25:11.871Z,33.00
2022-11-27T17:27:15.396Z,34.95
2022-11-27T17:29:22.183Z,33.05
2022-11-27T17:31:27.584Z,34.22
2022-11-27T17:33:30.174Z,32.38
2022-11-27T17:35:32.781Z,34.20
2022-11-27T17:37:35.036Z,33.85
2022-11-27T17:39:37.144Z,35.75
2022-11-27T17:41:41.069Z,35.30
2022-11-27T17:43:43.086Z,35.33
2022-11-27T17:45:45.354Z,35.13
2022-11-27T17:47:47.864Z,36.70
2022-11-27T17:49:50.288Z,36.08
2022-11-27T17:51:52.517Z,35.13
2022-11-27T17:53:54.738Z,35.58
2022-11-27T17:55:57.960Z,38.35
2022-11-27T17:58:00.373Z,36.92
2022-11-27T18:00:02.622Z,36.60
2022-11-27T18:02:05.016Z,36.22
2022-11-27T18:04:07.499Z,37.47
2022-11-27T18:06:10.624Z,36.80
2022-11-27T18:08:13.101Z,36.90
2022-11-27T18:10:18.904Z,35.63
2022-11-27T18:12:21.597Z,39.53
2022-11-27T18:14:24.090Z,36.83
2022-11-27T18:16:32.038Z,38.35
2022-11-27T18:18:34.497Z,37.28
2022-11-27T18:20:36.950Z,37.13
2022-11-27T18:22:39.240Z,36.42
2022-11-27T18:24:42.379Z,37.88
2022-11-27T18:29:12.352Z,39.90
2022-11-27T18:31:22.433Z,38.70
2022-11-27T18:33:26.373Z,37.10
2022-11-27T18:35:29.707Z,37.45
2022-11-27T18:37:31.766Z,38.75
2022-11-27T18:39:36.446Z,37.80
2022-11-27T18:41:39.232Z,39.58
2022-11-27T18:43:44.733Z,37.83
2022-11-27T18:45:47.337Z,37.95
2022-11-27T18:47:49.778Z,38.10
2022-11-27T18:49:52.807Z,37.20
2022-11-27T18:51:54.852Z,40.33
2022-11-27T18:53:57.873Z,42.92
2022-11-27T18:56:05.529Z,42.42
2022-11-27T18:58:07.913Z,43.47
2022-11-27T19:00:11.948Z,41.53
2022-11-27T19:02:14.037Z,43.25
2022-11-27T19:04:15.935Z,44.58
2022-11-27T19:06:21.210Z,43.05
2022-11-27T19:08:24.589Z,41.72
2022-11-27T19:10:26.590Z,42.40
2022-11-27T19:12:29.139Z,47.97
2022-11-27T19:14:31.671Z,55.10
2022-11-27T19:16:38.620Z,58.30
2022-11-27T19:18:41.802Z,60.15
2022-11-27T19:20:43.931Z,58.70
2022-11-27T19:22:46.402Z,50.63
2022-11-27T19:24:48.826Z,48.15
2022-11-27T19:26:51.274Z,45.83
2022-11-27T19:28:57.119Z,59.33
2022-11-27T19:31:07.964Z,60.92
2022-11-27T19:33:10.898Z,60.22
2022-11-27T19:35:13.462Z,57.63
2022-11-27T19:37:24.682Z,53.22
2022-11-27T19:39:35.317Z,48.10
2022-11-27T19:41:37.772Z,46.95
2022-11-27T19:43:40.216Z,56.13
2022-11-27T19:45:42.561Z,55.67
2022-11-27T19:47:44.676Z,55.85
2022-11-27T19:49:46.924Z,53.65
2022-11-27T19:51:49.917Z,50.17
2022-11-27T19:53:55.228Z,46.53
2022-11-27T19:55:57.664Z,44.58
2022-11-27T19:58:00.101Z,42.85
2022-11-27T20:00:02.488Z,42.15
2022-11-27T20:02:04.957Z,42.38
2022-11-27T20:04:08.420Z,42.95
2022-11-27T20:06:14.939Z,42.03
2022-11-27T20:08:18.736Z,42.08
2022-11-27T20:10:23.241Z,41.75
2022-11-27T20:12:25.208Z,42.88
2022-11-27T20:14:27.550Z,41.53
2022-11-27T20:16:30.263Z,42.45
2022-11-27T20:18:32.739Z,42.17
2022-11-27T20:20:35.152Z,42.10
2022-11-27T20:22:37.815Z,40.88
2022-11-27T20:24:58.426Z,42.95
2022-11-27T20:27:05.565Z,41.55
2022-11-27T20:29:08.433Z,42.17
2022-11-27T20:31:26.709Z,40.70
2022-11-27T20:33:29.962Z,45.72
2022-11-27T20:35:33.551Z,52.15
2022-11-27T20:37:35.960Z,53.60
2022-11-27T20:39:41.183Z,52.38
2022-11-27T20:41:47.047Z,50.75
2022-11-27T20:43:54.043Z,50.25
2022-11-27T20:45:58.920Z,48.92
2022-11-27T20:48:01.477Z,51.45
2022-11-27T20:50:05.308Z,50.88
2022-11-27T20:52:07.762Z,60.80
2022-11-27T20:54:11.324Z,58.50
2022-11-27T20:56:16.046Z,55.78
2022-11-27T20:58:17.968Z,58.30
2022-11-27T21:00:20.712Z,59.58
2022-11-27T21:02:25.835Z,58.22
2022-11-27T21:04:28.951Z,56.58
2022-11-27T21:06:33.153Z,55.38
2022-11-27T21:08:35.659Z,57.83
2022-11-27T21:10:37.675Z,51.70
2022-11-27T21:12:40.109Z,53.53
2022-11-27T21:14:44.558Z,52.35
2022-11-27T21:16:49.066Z,53.53
2022-11-27T21:19:00.166Z,52.60
2022-11-27T21:21:10.918Z,52.20
2022-11-27T21:23:14.892Z,53.65
2022-11-27T21:25:20.444Z,51.65
2022-11-27T21:27:26.055Z,50.47
2022-11-27T21:29:27.949Z,50.60
2022-11-27T21:31:34.579Z,52.72
2022-11-27T21:33:39.277Z,52.72
2022-11-27T21:35:42.244Z,53.25
2022-11-27T21:37:44.278Z,54.72
2022-11-27T21:39:47.197Z,55.25
2022-11-27T21:41:51.628Z,53.97
2022-11-27T21:43:59.951Z,53.85
2022-11-27T21:46:14.834Z,55.22
2022-11-27T21:48:16.920Z,52.55
2022-11-27T21:50:18.914Z,51.97
2022-11-27T21:52:20.907Z,54.00
2022-11-27T21:54:23.120Z,52.63
2022-11-27T21:56:27.732Z,51.15
2022-11-27T21:58:34.344Z,52.63
2022-11-27T22:00:37.040Z,52.25
2022-11-27T22:02:39.224Z,57.17
2022-11-27T22:04:41.556Z,52.67
2022-11-27T22:06:45.515Z,56.13
2022-11-27T22:09:01.678Z,59.25
2022-11-27T22:11:09.685Z,54.60
2022-11-27T22:13:11.666Z,53.55
2022-11-27T22:15:13.524Z,59.60
2022-11-27T22:17:15.580Z,58.20
2022-11-27T22:19:18.133Z,58.33
2022-11-27T22:21:20.589Z,52.88
2022-11-27T22:23:22.520Z,50.92
2022-11-27T22:25:24.527Z,46.88
2022-11-27T22:27:26.581Z,48.28
2022-11-27T22:29:29.584Z,45.55
2022-11-27T22:31:34.136Z,45.47
2022-11-27T22:33:37.224Z,43.25
2022-11-27T22:35:39.269Z,43.40
2022-11-27T22:37:41.179Z,41.53
2022-11-27T22:39:46.017Z,43.00
2022-11-27T22:41:47.863Z,41.53
2022-11-27T22:43:50.071Z,42.90
2022-11-27T22:45:52.127Z,42.08
2022-11-27T22:47:54.497Z,42.22
2022-11-27T22:49:56.618Z,41.40
2022-11-27T22:51:58.636Z,42.60
2022-11-27T22:54:03.762Z,41.85
2022-11-27T22:56:08.314Z,42.97
2022-11-27T22:58:13.444Z,41.67
2022-11-27T23:00:15.736Z,41.05
2022-11-27T23:02:18.429Z,42.88
2022-11-27T23:04:20.417Z,41.00
2022-11-27T23:06:23.932Z,41.20
2022-11-27T23:08:25.876Z,40.85
2022-11-27T23:10:27.715Z,41.15
2022-11-27T23:12:29.562Z,44.28
2022-11-27T23:14:31.408Z,41.25
2022-11-27T23:16:33.788Z,43.80
2022-11-27T23:18:36.231Z,41.58
2022-11-27T23:20:42.711Z,43.40
2022-11-27T23:22:44.566Z,44.10
2022-11-27T23:24:46.357Z,43.22
2022-11-27T23:26:48.399Z,43.20
2022-11-27T23:28:53.863Z,42.28
2022-11-27T23:31:22.399Z,43.35
2022-11-27T23:33:17.569Z,41.35
2022-11-27T23:35:19.407Z,41.83
2022-11-27T23:37:21.260Z,41.05
2022-11-27T23:39:23.279Z,42.40
2022-11-27T23:41:26.177Z,41.92
2022-11-27T23:43:28.747Z,41.00
2022-11-27T23:45:30.642Z,42.05
2022-11-27T23:47:32.712Z,38.78
2022-11-27T23:49:34.537Z,40.83
2022-11-27T23:51:36.595Z,42.08
2022-11-27T23:53:38.728Z,43.00
2022-11-27T23:55:40.528Z,43.83
2022-11-27T23:57:42.418Z,45.45
2022-11-27T23:59:44.402Z,44.60
